Time;durP1;ratioP1;P1;durP2;ratioP2;P2;SDS_P1;SDS_P2;PMS_P1;PMS_P2;Temp;Humidity;BMP_temperature;BMP_pressure;BME280_temperature;BME280_humidity;BME280_pressure;Samples;Min_cycle;Max_cycle;Signal;HPM_P1;HPM_P2
2022/10/20 00:01:24;;;;;;;12.90;6.30;;;;;;;3.38;78.22;101330.05;1787805;79;25672;-68
2022/10/20 00:03:53;;;;;;;13.22;6.65;;;;;;;3.35;78.17;101334.00;1800060;79;25388;-68
2022/10/20 00:06:27;;;;;;;12.60;7.25;;;;;;;3.34;78.54;101339.08;1787586;79;32448;-68
2022/10/20 00:08:57;;;;;;;14.83;7.78;;;;;;;3.32;78.63;101337.97;1802704;78;25564;-68
2022/10/20 00:11:26;;;;;;;14.90;8.28;;;;;;;3.30;78.36;101337.90;1798389;79;27189;-68
2022/10/20 00:13:55;;;;;;;18.92;9.85;;;;;;;3.29;78.68;101339.77;1794461;79;25595;-68
2022/10/20 00:16:27;;;;;;;14.63;7.35;;;;;;;3.31;78.75;101340.88;1798910;79;25532;-68
2022/10/20 00:18:57;;;;;;;16.45;9.13;;;;;;;3.31;78.89;101343.55;1799499;79;25693;-68
2022/10/20 00:21:27;;;;;;;15.48;8.20;;;;;;;3.32;79.28;101346.50;1804209;79;25593;-68
2022/10/20 00:23:55;;;;;;;13.53;8.13;;;;;;;3.30;79.33;101346.76;1801848;79;27815;-68
2022/10/20 00:26:26;;;;;;;12.47;7.30;;;;;;;3.32;79.47;101351.34;1800069;79;25281;-67
2022/10/20 00:28:54;;;;;;;13.45;7.22;;;;;;;3.32;79.52;101343.82;1796930;79;25462;-67
2022/10/20 00:31:23;;;;;;;12.93;7.95;;;;;;;3.31;79.39;101350.23;1797265;79;26465;-67
2022/10/20 00:33:52;;;;;;;11.97;5.97;;;;;;;3.29;78.94;101343.78;1800367;79;25291;-67
2022/10/20 00:36:22;;;;;;;10.35;5.65;;;;;;;3.29;79.25;101347.80;1796050;79;27195;-67
2022/10/20 00:38:50;;;;;;;15.10;5.55;;;;;;;3.29;79.18;101348.33;1800475;78;25567;-67
2022/10/20 00:41:20;;;;;;;8.85;5.58;;;;;;;3.26;78.91;101340.23;1799052;79;25283;-67
2022/10/20 00:43:55;;;;;;;10.63;5.70;;;;;;;3.26;78.84;101346.11;1795100;79;25851;-67
2022/10/20 00:46:31;;;;;;;9.15;4.95;;;;;;;3.22;78.92;101337.75;1796375;79;25329;-68
2022/10/20 00:49:21;;;;;;;8.50;5.15;;;;;;;3.20;78.89;101342.49;1796018;79;27324;-68
2022/10/20 00:51:50;;;;;;;13.20;5.87;;;;;;;3.15;78.59;101337.03;1801922;79;25678;-68
2022/10/20 00:54:23;;;;;;;10.15;5.22;;;;;;;3.12;78.76;101341.53;1799401;79;25355;-68
2022/10/20 00:56:53;;;;;;;13.28;5.75;;;;;;;3.08;78.82;101341.69;1804070;78;25654;-68
2022/10/20 00:59:25;;;;;;;14.43;6.10;;;;;;;3.04;78.85;101336.53;1792061;79;25530;-68
2022/10/20 01:01:54;;;;;;;9.50;5.42;;;;;;;2.99;78.86;101339.36;1803429;79;27161;-69
2022/10/20 01:04:22;;;;;;;8.28;5.85;;;;;;;2.95;78.75;101347.56;1800555;79;25514;-69
2022/10/20 01:06:50;;;;;;;9.80;5.28;;;;;;;2.93;79.05;101336.84;1796207;79;25341;-68
2022/10/20 01:09:17;;;;;;;9.48;5.67;;;;;;;2.90;78.98;101336.76;1802138;79;25689;-68
2022/10/20 01:12:16;;;;;;;9.10;4.85;;;;;;;2.87;78.87;101340.42;1801188;79;25366;-68
2022/10/20 01:15:06;;;;;;;7.97;5.25;;;;;;;2.84;78.58;101342.22;1795696;79;28154;-66
2022/10/20 01:18:09;;;;;;;10.85;5.05;;;;;;;2.78;78.92;101335.41;1795508;79;25455;-66
2022/10/20 01:21:02;;;;;;;10.68;6.08;;;;;;;2.73;78.61;101335.30;1801252;79;25541;-67
2022/10/20 01:23:49;;;;;;;12.33;5.57;;;;;;;2.70;78.85;101342.42;1795320;79;25662;-67
2022/10/20 01:26:40;;;;;;;7.70;5.00;;;;;;;2.66;78.85;101344.48;1797424;79;25568;-69
2022/10/20 01:29:28;;;;;;;12.05;5.45;;;;;;;2.61;78.78;101345.96;1737668;81;27427;-68
2022/10/20 01:32:12;;;;;;;9.40;5.33;;;;;;;2.56;78.87;101340.50;1741566;81;25565;-69
2022/10/20 01:35:04;;;;;;;11.18;5.10;;;;;;;2.53;78.83;101346.82;1736327;81;25501;-69
2022/10/20 01:37:46;;;;;;;8.53;4.90;;;;;;;2.49;78.86;101340.32;1739188;81;25687;-67
2022/10/20 01:40:33;;;;;;;11.55;5.42;;;;;;;2.46;79.02;101340.24;1705269;83;25722;-67
2022/10/20 01:43:05;;;;;;;8.15;5.20;;;;;;;2.40;79.26;101344.66;1693900;83;27215;-69
2022/10/20 01:45:36;;;;;;;10.58;5.33;;;;;;;2.39;79.50;101347.55;1737685;81;25625;-69
2022/10/20 01:48:06;;;;;;;12.78;5.17;;;;;;;2.36;79.51;101343.99;1734565;81;25586;-69
2022/10/20 01:50:36;;;;;;;8.58;5.03;;;;;;;2.34;79.56;101342.88;1736625;81;25708;-68
2022/10/20 01:53:04;;;;;;;8.53;4.87;;;;;;;2.33;79.18;101344.44;1706146;83;25550;-69
2022/10/20 01:55:32;;;;;;;6.08;4.35;;;;;;;2.29;78.81;101344.09;1705322;83;27292;-68
2022/10/20 01:58:29;;;;;;;11.12;5.05;;;;;;;2.27;79.12;101339.50;1733766;81;25521;-68
2022/10/20 02:01:02;;;;;;;6.60;4.78;;;;;;;2.24;79.20;101337.28;1734572;81;25549;-69
2022/10/20 02:03:44;;;;;;;7.55;4.72;;;;;;;2.20;79.28;101341.46;1701091;83;25628;-69
2022/10/20 02:06:40;;;;;;;11.55;4.83;;;;;;;2.17;79.40;101340.05;1758663;79;25515;-69
2022/10/20 02:09:12;;;;;;;11.97;5.42;;;;;;;2.13;79.46;101341.55;1764398;80;27338;-68
2022/10/20 02:11:56;;;;;;;7.78;5.33;;;;;;;2.12;79.71;101338.58;1790128;79;25570;-69
2022/10/20 02:14:24;;;;;;;8.65;5.28;;;;;;;2.11;79.85;101340.97;1789211;79;25892;-68
2022/10/20 02:16:56;;;;;;;7.30;5.00;;;;;;;2.09;79.75;101333.69;1784192;79;25589;-68
2022/10/20 02:19:28;;;;;;;7.58;5.37;;;;;;;2.08;79.83;101329.41;1783421;79;25442;-68
2022/10/20 02:21:57;;;;;;;9.70;5.00;;;;;;;2.09;80.21;101331.55;1791984;79;27234;-68
2022/10/20 02:24:28;;;;;;;8.50;5.03;;;;;;;2.08;80.21;101325.91;1791274;79;25522;-68
2022/10/20 02:27:01;;;;;;;11.68;5.58;;;;;;;2.08;80.16;101328.57;1794328;79;25545;-68
2022/10/20 02:29:33;;;;;;;15.18;5.30;;;;;;;2.07;80.01;101334.97;1790164;79;27771;-68
2022/10/20 02:32:01;;;;;;;11.43;5.62;;;;;;;2.02;79.96;101327.09;1786740;79;25507;-68
2022/10/20 02:34:28;;;;;;;9.43;4.97;;;;;;;2.01;79.79;101327.33;1793009;79;27243;-68
2022/10/20 02:36:58;;;;;;;7.95;4.90;;;;;;;2.00;79.83;101335.05;1794741;79;25498;-68
2022/10/20 02:39:26;;;;;;;10.23;4.92;;;;;;;1.99;79.91;101338.25;1782511;79;32916;-69
2022/10/20 02:41:53;;;;;;;13.48;5.87;;;;;;;1.98;80.01;101335.28;1779484;79;25634;-68
2022/10/20 02:44:21;;;;;;;8.05;6.03;;;;;;;1.97;80.13;101331.50;1771792;79;25455;-68
2022/10/20 02:46:49;;;;;;;9.45;5.78;;;;;;;1.95;80.24;101333.05;1776891;79;27250;-68
2022/10/20 02:49:16;;;;;;;10.82;5.50;;;;;;;1.94;80.32;101335.95;1779856;79;25605;-68
2022/10/20 02:51:43;;;;;;;9.58;5.58;;;;;;;1.92;80.31;101335.36;1779408;79;25539;-68
2022/10/20 02:54:11;;;;;;;11.40;5.00;;;;;;;1.90;80.19;101334.25;1778281;79;25626;-68
2022/10/20 02:56:38;;;;;;;8.25;5.50;;;;;;;1.88;79.92;101335.00;1780247;79;25464;-68
2022/10/20 02:59:05;;;;;;;8.65;5.35;;;;;;;1.88;80.00;101339.00;1776604;79;27068;-68
2022/10/20 03:01:32;;;;;;;10.25;5.90;;;;;;;1.88;80.05;101347.54;1777451;79;25683;-68
2022/10/20 03:03:59;;;;;;;9.80;6.05;;;;;;;1.83;80.02;101340.20;1777295;79;25455;-68
2022/10/20 03:06:26;;;;;;;21.23;11.35;;;;;;;1.80;80.08;101339.30;1780006;79;25605;-68
2022/10/20 03:08:54;;;;;;;14.87;7.95;;;;;;;1.79;80.22;101344.37;1783423;79;25646;-68
2022/10/20 03:11:21;;;;;;;14.47;5.80;;;;;;;1.76;80.18;101342.14;1779679;79;29404;-68
2022/10/20 03:13:48;;;;;;;11.97;5.33;;;;;;;1.75;79.96;101345.30;1782076;79;25296;-68
2022/10/20 03:16:15;;;;;;;11.12;6.08;;;;;;;1.74;80.03;101345.53;1780259;79;25496;-68
2022/10/20 03:18:42;;;;;;;9.48;5.28;;;;;;;1.72;80.07;101344.45;1779344;79;25522;-68
2022/10/20 03:21:09;;;;;;;11.70;5.65;;;;;;;1.72;80.11;101355.12;1781125;79;25338;-68
2022/10/20 03:23:36;;;;;;;9.00;5.70;;;;;;;1.70;79.98;101351.83;1775261;79;27904;-68
2022/10/20 03:26:06;;;;;;;8.28;4.95;;;;;;;1.68;80.00;101349.91;1784022;79;26139;-68
2022/10/20 03:28:34;;;;;;;10.65;5.60;;;;;;;1.67;79.97;101353.64;1776331;79;25532;-68
2022/10/20 03:31:01;;;;;;;10.90;5.22;;;;;;;1.63;79.83;101349.77;1781844;79;26168;-68
2022/10/20 03:33:28;;;;;;;10.85;5.90;;;;;;;1.58;79.88;101350.43;1781906;79;25326;-68
2022/10/20 03:35:55;;;;;;;9.65;5.08;;;;;;;1.56;79.86;101349.04;1782320;79;27266;-68
2022/10/20 03:38:23;;;;;;;9.23;5.67;;;;;;;1.54;79.74;101349.78;1783313;79;25826;-68
2022/10/20 03:40:51;;;;;;;11.08;5.30;;;;;;;1.51;79.91;101355.56;1800214;79;25520;-68
2022/10/20 03:43:18;;;;;;;8.45;5.53;;;;;;;1.50;79.76;101361.42;1794253;79;25695;-68
2022/10/20 03:45:45;;;;;;;10.38;6.55;;;;;;;1.47;79.51;101361.33;1800272;79;25508;-68
2022/10/20 03:48:13;;;;;;;10.53;6.30;;;;;;;1.46;79.78;101356.22;1798715;79;27254;-68
2022/10/20 03:50:41;;;;;;;11.80;5.17;;;;;;;1.45;79.80;101362.61;1796438;78;25495;-68
2022/10/20 03:53:13;;;;;;;9.53;4.42;;;;;;;1.41;79.66;101362.73;1799573;79;25667;-69
2022/10/20 03:55:40;;;;;;;9.23;6.30;;;;;;;1.37;79.66;101366.36;1793921;79;25547;-68
2022/10/20 03:58:07;;;;;;;9.95;6.17;;;;;;;1.36;79.65;101362.58;1801731;79;25407;-68
2022/10/20 04:00:34;;;;;;;7.22;5.80;;;;;;;1.32;79.55;101364.07;1799532;79;27162;-68
2022/10/20 04:03:02;;;;;;;9.83;5.90;;;;;;;1.27;79.53;101372.72;1795232;79;25503;-68
2022/10/20 04:05:29;;;;;;;9.25;5.65;;;;;;;1.24;79.61;101373.16;1796517;79;25337;-68
2022/10/20 04:07:56;;;;;;;9.33;6.30;;;;;;;1.19;79.34;101378.33;1801876;79;26159;-68
2022/10/20 04:10:23;;;;;;;12.23;6.20;;;;;;;1.17;79.55;101383.88;1802900;78;25447;-68
2022/10/20 04:12:50;;;;;;;11.30;5.80;;;;;;;1.15;79.49;101383.28;1800345;79;27239;-68
2022/10/20 04:15:18;;;;;;;12.95;6.55;;;;;;;1.11;79.62;101382.91;1803056;79;25430;-69
2022/10/20 04:17:45;;;;;;;9.05;5.72;;;;;;;1.08;79.48;101378.02;1797366;79;25351;-68
2022/10/20 04:20:12;;;;;;;11.53;6.08;;;;;;;1.04;79.42;101375.50;1801172;79;25601;-68
2022/10/20 04:22:39;;;;;;;11.25;6.60;;;;;;;1.02;79.40;101376.24;1800466;78;25525;-68
2022/10/20 04:25:07;;;;;;;12.70;6.30;;;;;;;0.99;78.98;101383.34;1794453;79;29382;-68
2022/10/20 04:27:34;;;;;;;13.70;6.95;;;;;;;0.97;79.27;101385.41;1798225;79;25312;-68
2022/10/20 04:30:02;;;;;;;12.73;6.53;;;;;;;0.95;79.36;101384.78;1798145;79;25491;-68
2022/10/20 04:32:29;;;;;;;17.00;7.80;;;;;;;0.93;79.45;101382.34;1798570;79;25801;-68
2022/10/20 04:34:57;;;;;;;21.87;9.60;;;;;;;0.93;79.61;101386.33;1797588;79;25512;-68
2022/10/20 04:37:24;;;;;;;59.90;11.08;;;;;;;0.91;79.84;101379.08;1801304;79;27777;-68
2022/10/20 04:39:51;;;;;;;16.93;8.78;;;;;;;0.89;80.11;101382.48;1806260;79;25360;-68
2022/10/20 04:42:19;;;;;;;45.17;18.77;;;;;;;0.87;80.09;101381.89;1794741;79;25616;-68
2022/10/20 04:44:47;;;;;;;22.87;10.75;;;;;;;0.84;80.00;101384.18;1798506;79;25550;-68
2022/10/20 04:47:14;;;;;;;17.27;9.93;;;;;;;0.81;80.04;101381.95;1799992;79;25302;-68
2022/10/20 04:49:41;;;;;;;18.50;8.93;;;;;;;0.79;79.93;101386.16;1795590;79;27195;-68
2022/10/20 04:52:08;;;;;;;19.02;10.30;;;;;;;0.78;79.65;101387.17;1799351;79;25343;-68
2022/10/20 04:54:35;;;;;;;21.77;11.22;;;;;;;0.77;79.29;101390.05;1801749;79;25467;-68
2022/10/20 04:57:05;;;;;;;23.57;11.85;;;;;;;0.75;79.86;101388.96;1802702;79;25656;-69
2022/10/20 04:59:32;;;;;;;30.27;14.85;;;;;;;0.73;79.81;101393.17;1794538;79;25276;-69
2022/10/20 05:01:59;;;;;;;28.80;14.87;;;;;;;0.73;79.91;101400.33;1793836;78;29456;-68
2022/10/20 05:04:27;;;;;;;28.50;12.68;;;;;;;0.71;79.90;101393.88;1769179;79;25514;-68
2022/10/20 05:06:54;;;;;;;21.00;10.68;;;;;;;0.70;79.84;101398.12;1794266;78;25570;-69
2022/10/20 05:09:21;;;;;;;23.22;10.75;;;;;;;0.69;79.95;101398.61;1801382;79;25637;-69
2022/10/20 05:11:48;;;;;;;19.98;10.65;;;;;;;0.68;79.90;101400.16;1797435;79;25533;-69
2022/10/20 05:14:15;;;;;;;16.62;9.28;;;;;;;0.67;79.98;101403.34;1770097;80;27220;-68
2022/10/20 05:16:42;;;;;;;20.32;9.35;;;;;;;0.66;80.16;101401.70;1772617;80;25760;-68
2022/10/20 05:19:10;;;;;;;17.87;9.43;;;;;;;0.65;80.05;101400.09;1799315;79;25647;-69
2022/10/20 05:21:38;;;;;;;17.95;9.63;;;;;;;0.64;80.08;101399.77;1796214;79;25796;-69
2022/10/20 05:24:05;;;;;;;19.17;10.48;;;;;;;0.64;80.29;101403.77;1799535;79;25593;-68
2022/10/20 05:26:36;;;;;;;16.45;9.80;;;;;;;0.66;80.37;101398.23;1797294;79;27175;-70
2022/10/20 05:29:07;;;;;;;17.40;8.63;;;;;;;0.66;80.32;101408.36;1791132;79;25620;-69
2022/10/20 05:31:43;;;;;;;20.52;8.35;;;;;;;0.67;80.22;101402.53;1798265;78;25336;-69
2022/10/20 05:34:11;;;;;;;19.62;8.80;;;;;;;0.69;80.51;101407.13;1793116;79;25766;-69
2022/10/20 05:36:38;;;;;;;17.87;8.85;;;;;;;0.68;80.57;101405.48;1794791;79;25608;-68
2022/10/20 05:39:05;;;;;;;17.90;8.73;;;;;;;0.69;80.58;101418.59;1799215;78;27251;-69
2022/10/20 05:41:33;;;;;;;19.45;10.28;;;;;;;0.67;80.68;101417.98;1799717;79;25748;-69
2022/10/20 05:44:03;;;;;;;19.40;11.43;;;;;;;0.70;80.79;101424.75;1794568;79;25602;-69
2022/10/20 05:46:37;;;;;;;25.17;13.10;;;;;;;0.71;80.98;101425.03;1799733;79;25637;-68
2022/10/20 05:49:03;;;;;;;34.20;17.85;;;;;;;0.74;81.01;101433.92;1789695;79;25590;-68
2022/10/20 05:51:34;;;;;;;37.63;16.57;;;;;;;0.77;81.18;101439.33;1794125;79;27217;-68
2022/10/20 05:54:03;;;;;;;27.07;12.78;;;;;;;0.82;81.49;101439.49;1794267;79;25667;-72
2022/10/20 05:56:32;;;;;;;23.00;11.57;;;;;;;0.87;81.76;101439.66;1798858;78;25523;-69
2022/10/20 05:58:59;;;;;;;21.15;10.50;;;;;;;0.92;81.85;101442.00;1791625;79;25672;-69
2022/10/20 06:01:39;;;;;;;19.50;9.98;;;;;;;0.96;81.72;101443.71;1797583;79;25589;-68
2022/10/20 06:03:59;;;;;;;20.08;9.58;;;;;;;1.01;81.72;101445.21;1800897;79;27840;-68
2022/10/20 06:06:29;;;;;;;18.23;10.63;;;;;;;1.05;81.54;101448.25;1798354;78;26080;-69
2022/10/20 06:08:59;;;;;;;17.98;9.90;;;;;;;1.08;81.83;101443.30;1802347;79;25528;-69
2022/10/20 06:11:27;;;;;;;27.10;10.25;;;;;;;1.12;81.96;101439.69;1798485;79;25674;-69
2022/10/20 06:13:56;;;;;;;21.05;9.70;;;;;;;1.18;82.15;101450.02;1792073;79;25470;-69
2022/10/20 06:16:25;;;;;;;19.62;9.10;;;;;;;1.24;82.29;101453.13;1798452;79;27868;-69
2022/10/20 06:18:53;;;;;;;17.55;9.95;;;;;;;1.30;82.44;101461.59;1794021;79;25632;-69
2022/10/20 06:21:24;;;;;;;19.85;9.35;;;;;;;1.37;82.73;101462.86;1795893;79;25489;-69
2022/10/20 06:23:52;;;;;;;22.55;12.23;;;;;;;1.45;82.73;101467.40;1800821;79;25679;-69
2022/10/20 06:26:23;;;;;;;25.45;13.03;;;;;;;1.53;82.89;101470.28;1799031;79;25496;-69
2022/10/20 06:28:56;;;;;;;31.40;14.38;;;;;;;1.62;83.07;101478.32;1795510;79;27522;-70
2022/10/20 06:31:33;;;;;;;30.37;13.75;;;;;;;1.73;83.11;101470.09;1796633;79;25563;-70
2022/10/20 06:34:04;;;;;;;29.50;15.50;;;;;;;1.82;82.96;101471.45;1793215;78;25447;-70
2022/10/20 06:36:35;;;;;;;26.35;12.28;;;;;;;1.99;83.87;101466.84;1792654;79;25649;-70
2022/10/20 06:39:05;;;;;;;42.48;18.65;;;;;;;2.21;84.72;101470.72;1801021;78;25251;-70
2022/10/20 06:41:34;;;;;;;23.73;11.30;;;;;;;2.37;85.05;101473.28;1779678;79;27126;-70
2022/10/20 06:44:02;;;;;;;18.02;11.20;;;;;;;2.53;84.62;101473.16;1780586;79;25559;-70
2022/10/20 06:46:35;;;;;;;18.05;10.05;;;;;;;2.71;85.04;101478.99;1784493;79;25530;-70
2022/10/20 06:49:05;;;;;;;20.40;12.03;;;;;;;2.90;85.44;101475.73;1775799;79;26287;-69
2022/10/20 06:51:34;;;;;;;24.15;12.80;;;;;;;3.09;85.61;101479.67;1782616;79;25649;-70
2022/10/20 06:54:03;;;;;;;23.97;11.07;;;;;;;3.36;86.86;101477.39;1783556;79;27248;-70
2022/10/20 06:56:33;;;;;;;27.87;15.00;;;;;;;3.65;87.23;101478.84;1772970;79;25583;-70
2022/10/20 06:59:02;;;;;;;21.85;11.70;;;;;;;3.99;87.80;101473.16;1765627;80;25665;-70
2022/10/20 07:01:37;;;;;;;19.98;11.53;;;;;;;4.28;87.81;101482.05;1750676;80;25660;-69
2022/10/20 07:04:12;;;;;;;24.50;12.45;;;;;;;4.63;88.33;101486.98;1765879;79;25525;-70
2022/10/20 07:06:44;;;;;;;19.82;10.10;;;;;;;4.94;87.83;101484.85;1765721;79;27770;-70
2022/10/20 07:09:18;;;;;;;19.02;11.40;;;;;;;5.14;86.08;101491.09;1765438;79;27445;-70
2022/10/20 07:11:51;;;;;;;23.83;12.63;;;;;;;5.38;87.06;101489.06;1772988;79;25596;-72
2022/10/20 07:14:18;;;;;;;26.87;12.73;;;;;;;5.75;87.64;101490.69;1755661;79;25736;-70
2022/10/20 07:16:45;;;;;;;21.33;12.20;;;;;;;6.22;89.41;101495.38;1765720;81;25604;-70
2022/10/20 07:19:12;;;;;;;27.98;13.48;;;;;;;6.88;90.72;101495.30;1772051;79;27339;-70
2022/10/20 07:21:40;;;;;;;27.35;14.33;;;;;;;7.55;90.09;101496.62;1765656;81;25617;-70
2022/10/20 07:24:08;;;;;;;20.20;12.20;;;;;;;8.15;88.63;101503.16;1758932;79;25555;-70
2022/10/20 07:26:39;;;;;;;20.73;13.67;;;;;;;8.81;86.34;101494.49;1790253;79;26132;-71
2022/10/20 07:29:07;;;;;;;22.07;12.58;;;;;;;9.49;86.40;101496.13;1761190;79;25598;-71
2022/10/20 07:31:39;;;;;;;16.48;10.03;;;;;;;10.12;85.04;101495.70;1781312;79;27697;-71
2022/10/20 07:34:08;;;;;;;13.88;9.58;;;;;;;10.71;82.76;101502.22;1770210;80;25551;-71
2022/10/20 07:36:37;;;;;;;17.25;10.25;;;;;;;11.32;80.88;101494.70;1757867;80;26183;-70
2022/10/20 07:39:05;;;;;;;16.75;10.58;;;;;;;11.87;79.10;101500.68;1771179;80;26770;-71
2022/10/20 07:41:35;;;;;;;17.15;10.82;;;;;;;12.40;77.91;101503.88;1749244;80;25338;-70
2022/10/20 07:44:02;;;;;;;;;;;;;;;12.99;76.53;101503.56;1755331;80;27252;-70
2022/10/20 07:46:29;;;;;;;11.40;7.50;;;;;;;13.42;75.04;101504.25;1774342;80;25548;-70
2022/10/20 07:48:56;;;;;;;10.53;7.30;;;;;;;13.95;74.27;101507.65;1774455;80;26265;-71
2022/10/20 07:51:28;;;;;;;12.20;7.22;;;;;;;14.28;72.19;101508.32;1774257;80;25624;-70
2022/10/20 07:54:06;;;;;;;9.93;6.83;;;;;;;14.32;69.59;101512.06;1797369;79;25558;-71
2022/10/20 07:56:39;;;;;;;12.25;7.53;;;;;;;14.22;68.50;101507.37;1797103;79;27146;-71
2022/10/20 07:59:09;;;;;;;14.03;7.53;;;;;;;14.15;67.54;101504.52;1797029;79;25846;-70
2022/10/20 08:01:37;;;;;;;12.40;7.20;;;;;;;14.10;66.31;101507.91;1774969;79;25324;-66
2022/10/20 08:04:04;;;;;;;10.80;6.90;;;;;;;13.96;65.56;101507.88;1797138;79;25707;-66
2022/10/20 08:06:32;;;;;;;14.55;7.80;;;;;;;13.81;65.50;101506.29;1797247;79;25548;-66
2022/10/20 08:08:59;;;;;;;14.10;6.85;;;;;;;13.71;65.00;101501.84;1777746;79;27787;-70
2022/10/20 08:11:27;;;;;;;10.65;6.10;;;;;;;13.68;65.76;101507.08;1765609;79;25704;-70
2022/10/20 08:13:54;;;;;;;11.78;6.28;;;;;;;13.69;64.61;101503.23;1768999;79;25544;-70
2022/10/20 08:16:21;;;;;;;8.33;6.25;;;;;;;13.63;64.48;101499.81;1756690;79;25670;-70
2022/10/20 08:18:48;;;;;;;10.00;6.40;;;;;;;13.56;63.78;101511.08;1775423;79;25567;-69
2022/10/20 08:21:20;;;;;;;9.03;6.17;;;;;;;13.36;63.55;101500.00;1797522;79;27262;-70
2022/10/20 08:23:49;;;;;;;7.67;5.80;;;;;;;13.24;63.56;101508.59;1790066;79;25507;-69
2022/10/20 08:26:21;;;;;;;11.33;6.00;;;;;;;13.13;63.71;101509.88;1771263;79;25501;-71
2022/10/20 08:28:52;;;;;;;10.45;6.65;;;;;;;12.99;63.70;101504.92;1788544;79;25608;-70
2022/10/20 08:31:20;;;;;;;10.80;7.55;;;;;;;12.88;63.95;101511.08;1778689;79;25552;-72
2022/10/20 08:33:48;;;;;;;11.45;7.08;;;;;;;12.80;64.01;101517.96;1772851;79;27223;-71
2022/10/20 08:36:15;;;;;;;12.13;7.33;;;;;;;12.77;64.37;101516.39;1780083;79;25589;-70
2022/10/20 08:38:43;;;;;;;11.25;6.53;;;;;;;12.79;64.15;101521.80;1775103;79;25866;-71
2022/10/20 08:41:27;;;;;;;11.15;6.70;;;;;;;12.82;64.44;101523.93;1787103;79;25633;-70
2022/10/20 08:43:57;;;;;;;11.68;6.65;;;;;;;12.90;64.65;101522.44;1790511;78;25553;-70
2022/10/20 08:46:28;;;;;;;;;;;;;;;13.06;64.80;101518.96;1777767;80;27166;-71
2022/10/20 08:48:56;;;;;;;9.23;5.83;;;;;;;13.23;64.40;101518.42;1804334;78;25589;-70
2022/10/20 08:51:28;;;;;;;9.85;6.20;;;;;;;13.38;64.21;101516.84;1783314;78;25606;-70
2022/10/20 08:53:59;;;;;;;10.60;5.60;;;;;;;13.50;64.45;101521.80;1804060;79;25632;-71
2022/10/20 08:56:29;;;;;;;9.15;5.50;;;;;;;13.69;63.41;101522.27;1816822;79;25533;-71
2022/10/20 08:58:57;;;;;;;12.98;5.80;;;;;;;13.72;62.76;101520.31;1775222;79;27247;-71
2022/10/20 09:01:34;;;;;;;7.50;5.50;;;;;;;13.93;63.96;101520.75;1807448;79;25333;-70
2022/10/20 09:04:24;;;;;;;6.70;5.03;;;;;;;14.48;63.72;101523.98;1816968;79;25368;-69
2022/10/20 09:06:57;;;;;;;10.88;5.25;;;;;;;14.81;62.35;101521.90;1773793;79;25685;-70
2022/10/20 09:09:27;;;;;;;7.42;5.17;;;;;;;15.21;61.51;101515.24;1816755;78;26121;-71
2022/10/20 09:11:59;;;;;;;10.43;5.65;;;;;;;15.34;60.87;101511.38;1784813;80;28634;-72
2022/10/20 09:14:29;;;;;;;9.38;5.33;;;;;;;16.08;62.36;101505.91;1804498;79;25429;-71
2022/10/20 09:16:57;;;;;;;7.92;4.75;;;;;;;17.05;61.46;101510.38;1816929;78;25318;-71
2022/10/20 09:19:24;;;;;;;6.40;4.17;;;;;;;17.83;59.39;101508.00;1804733;78;25636;-71
2022/10/20 09:21:56;;;;;;;6.58;3.95;;;;;;;18.61;58.17;101513.03;1790173;79;25698;-71
2022/10/20 09:24:28;;;;;;;7.17;3.52;;;;;;;19.31;56.80;101507.53;1816356;79;27230;-71
2022/10/20 09:26:56;;;;;;;6.30;2.95;;;;;;;20.01;54.57;101499.28;1754619;80;25553;-72
2022/10/20 09:29:37;;;;;;;4.50;3.62;;;;;;;20.61;52.22;101497.34;1816665;79;25508;-72
2022/10/20 09:32:30;;;;;;;3.85;2.70;;;;;;;21.03;49.53;101501.91;1813261;78;25778;-72
2022/10/20 09:35:18;;;;;;;2.00;1.47;;;;;;;21.45;48.23;101506.97;1781716;78;26153;-71
2022/10/20 09:38:08;;;;;;;3.10;2.35;;;;;;;22.11;46.59;101505.22;1792344;79;27197;-71
2022/10/20 09:40:47;;;;;;;6.25;3.25;;;;;;;22.49;45.72;101500.95;1811820;78;25687;-70
2022/10/20 09:43:16;;;;;;;3.83;3.03;;;;;;;22.85;45.16;101499.75;1792504;79;25586;-71
2022/10/20 09:45:55;;;;;;;5.12;3.20;;;;;;;23.19;44.24;101501.41;1796799;79;25616;-71
2022/10/20 09:48:39;;;;;;;6.15;3.02;;;;;;;23.59;43.99;101497.95;1797278;79;25562;-70
2022/10/20 09:51:14;;;;;;;6.00;3.70;;;;;;;24.10;42.84;101495.41;1771121;79;27372;-71
2022/10/20 09:54:07;;;;;;;5.83;2.55;;;;;;;24.55;41.84;101490.90;1765441;81;25594;-71
2022/10/20 09:56:38;;;;;;;3.77;2.30;;;;;;;24.85;41.06;101482.56;1789323;79;25421;-72
2022/10/20 09:59:19;;;;;;;4.50;2.47;;;;;;;25.41;40.46;101493.24;1774786;79;26627;-72
2022/10/20 10:02:03;;;;;;;3.08;2.08;;;;;;;25.72;39.22;101484.98;1776452;79;25605;-71
2022/10/20 10:04:35;;;;;;;5.72;1.90;;;;;;;26.04;38.11;101489.98;1774169;79;27183;-68
2022/10/20 10:07:07;;;;;;;6.35;2.50;;;;;;;25.93;37.44;101487.69;1764425;79;25598;-69
2022/10/20 10:09:37;;;;;;;4.05;1.80;;;;;;;25.18;36.58;101483.69;1780251;79;25596;-68
2022/10/20 10:12:15;;;;;;;6.37;1.55;;;;;;;24.11;36.43;101479.84;1795001;79;26205;-69
2022/10/20 10:14:59;;;;;;;2.58;1.42;;;;;;;23.06;36.12;101482.04;1782919;79;25601;-69
2022/10/20 10:17:40;;;;;;;3.37;1.65;;;;;;;22.08;36.65;101476.41;1786871;79;27333;-69
2022/10/20 10:20:18;;;;;;;4.05;2.17;;;;;;;21.16;37.00;101475.13;1788475;79;25630;-68
2022/10/20 10:22:46;;;;;;;2.30;1.25;;;;;;;20.35;37.47;101479.33;1785601;79;33858;-67
2022/10/20 10:25:26;;;;;;;2.30;1.70;;;;;;;19.65;38.24;101477.52;1780707;79;25656;-68
2022/10/20 10:28:07;;;;;;;3.35;1.77;;;;;;;19.15;39.22;101477.19;1782837;79;25677;-67
2022/10/20 10:30:37;;;;;;;5.47;3.15;;;;;;;19.19;41.58;101476.18;1785397;79;27229;-67
2022/10/20 10:33:31;;;;;;;3.45;1.00;;;;;;;19.75;41.05;101467.48;1792638;79;25664;-67
2022/10/20 10:36:03;;;;;;;4.03;1.10;;;;;;;20.45;40.74;101469.78;1787031;79;25550;-67
2022/10/20 10:38:30;;;;;;;2.50;2.08;;;;;;;21.18;40.24;101463.22;1795078;79;25671;-68
2022/10/20 10:41:46;;;;;;;2.20;0.95;;;;;;;21.61;39.51;101458.81;1777797;79;25526;-67
2022/10/20 10:44:37;;;;;;;3.87;1.15;;;;;;;22.06;39.47;101460.83;1805424;79;27857;-67
2022/10/20 10:47:44;;;;;;;1.42;0.85;;;;;;;22.75;38.80;101454.83;1812218;79;25858;-68
2022/10/20 10:50:35;;;;;;;3.60;1.20;;;;;;;22.83;37.45;101454.37;1797902;79;25578;-66
2022/10/20 10:53:41;;;;;;;2.20;1.17;;;;;;;22.91;37.14;101459.66;1793033;78;25697;-68
2022/10/20 10:56:29;;;;;;;1.50;1.15;;;;;;;22.51;36.54;101453.96;1791987;78;25603;-66
2022/10/20 10:59:29;;;;;;;3.55;2.00;;;;;;;21.80;36.21;101453.95;1804499;79;27210;-66
2022/10/20 11:02:37;;;;;;;2.98;1.30;;;;;;;21.04;36.12;101451.27;1810189;78;25611;-66
2022/10/20 11:05:48;;;;;;;2.60;1.40;;;;;;;20.19;36.64;101449.59;1804619;79;25535;-67
2022/10/20 11:08:43;;;;;;;2.80;0.88;;;;;;;19.38;37.30;101448.22;1800404;78;25665;-66
2022/10/20 11:11:25;;;;;;;2.67;1.47;;;;;;;18.65;37.83;101452.89;1800171;78;26077;-66
2022/10/20 11:14:16;;;;;;;3.70;1.40;;;;;;;18.02;38.52;101440.55;1778458;78;27181;-67
2022/10/20 11:17:08;;;;;;;5.40;1.22;;;;;;;17.54;39.19;101439.80;1787081;79;25543;-70
2022/10/20 11:20:01;;;;;;;3.58;1.32;;;;;;;17.07;39.64;101434.31;1784931;79;25514;-70
2022/10/20 11:22:59;;;;;;;2.45;1.10;;;;;;;16.57;40.26;101432.91;1782185;78;25725;-69
2022/10/20 11:25:48;;;;;;;1.60;1.50;;;;;;;16.04;40.83;101431.49;1776351;79;25310;-68
2022/10/20 11:28:43;;;;;;;1.10;0.85;;;;;;;15.71;41.58;101420.13;1779607;79;27255;-74
2022/10/20 11:31:37;;;;;;;2.47;1.20;;;;;;;15.69;43.23;101414.20;1753284;80;25692;-75
2022/10/20 11:34:14;;;;;;;1.60;1.20;;;;;;;16.48;44.91;101411.61;1753870;80;25540;-74
2022/10/20 11:36:53;;;;;;;2.58;1.00;;;;;;;17.62;44.24;101408.05;1759594;80;25609;-78
2022/10/20 11:39:32;;;;;;;1.32;0.75;;;;;;;18.73;42.69;101409.53;1787848;79;25613;-73
2022/10/20 11:42:04;;;;;;;2.47;0.70;;;;;;;19.48;41.57;101403.08;1791460;79;27188;-73
2022/10/20 11:44:41;;;;;;;1.55;0.88;;;;;;;20.22;40.16;101399.46;1764897;80;25720;-73
2022/10/20 11:47:13;;;;;;;0.57;0.30;;;;;;;19.96;38.09;101394.59;1793986;79;25723;-73
2022/10/20 11:49:41;;;;;;;1.00;0.75;;;;;;;19.26;37.00;101390.60;1767306;79;25607;-68
2022/10/20 11:52:22;;;;;;;1.92;0.60;;;;;;;18.69;37.10;101391.36;1753879;79;25568;-69